Time;durP1;ratioP1;P1;durP2;ratioP2;P2;SDS_P1;SDS_P2;PMS_P1;PMS_P2;Temp;Humidity;BMP_temperature;BMP_pressure;BME280_temperature;BME280_humidity;BME280_pressure;Samples;Min_cycle;Max_cycle;Signal;HPM_P1;HPM_P2
2022/08/16 00:00:47;;;;;;;21.40;18.33;;;;;;;;;;5051061;28;20119;-78
2022/08/16 00:03:13;;;;;;;21.90;19.52;;;;;;;;;;5051460;28;20047;-78
2022/08/16 00:05:40;;;;;;;23.25;19.67;;;;;;;;;;5051550;28;20094;-78
2022/08/16 00:08:06;;;;;;;23.42;18.90;;;;;;;;;;5050955;28;20045;-78
2022/08/16 00:10:32;;;;;;;24.08;19.77;;;;;;;;;;5051542;28;20037;-78
2022/08/16 00:12:59;;;;;;;23.90;19.10;;;;;;;;;;5049134;28;20128;-78
2022/08/16 00:15:28;;;;;;;21.05;18.88;;;;;;;;;;5051316;28;20480;-78
2022/08/16 00:17:54;;;;;;;25.60;18.70;;;;;;;;;;5034053;28;20052;-77
2022/08/16 00:20:21;;;;;;;21.48;17.70;;;;;;;;;;5051440;28;20136;-77
2022/08/16 00:22:47;;;;;;;19.83;17.50;;;;;;;;;;5051180;28;20120;-77
2022/08/16 00:25:15;;;;;;;20.50;17.23;;;;;;;;;;5050983;28;20041;-78
2022/08/16 00:27:41;;;;;;;19.58;16.10;;;;;;;;;;5050514;28;20052;-78
2022/08/16 00:30:09;;;;;;;22.83;16.13;;;;;;;;;;5050800;28;20063;-77
2022/08/16 00:32:37;;;;;;;22.63;17.17;;;;;;;;;;5051349;28;20051;-78
2022/08/16 00:35:04;;;;;;;19.38;16.60;;;;;;;;;;5051183;28;20045;-78
2022/08/16 00:37:30;;;;;;;22.48;17.92;;;;;;;;;;5050928;28;20115;-77
2022/08/16 00:39:56;;;;;;;24.75;17.77;;;;;;;;;;5050650;28;20045;-78
2022/08/16 00:42:22;;;;;;;21.20;17.60;;;;;;;;;;5050404;28;20033;-78
2022/08/16 00:44:53;;;;;;;21.38;17.60;;;;;;;;;;5034352;28;20557;-78
2022/08/16 00:47:20;;;;;;;21.27;18.10;;;;;;;;;;5050450;28;20132;-77
2022/08/16 00:49:47;;;;;;;21.52;17.73;;;;;;;;;;5049981;28;20628;-78
2022/08/16 00:52:13;;;;;;;23.05;18.10;;;;;;;;;;5050704;28;20128;-78
2022/08/16 00:54:39;;;;;;;21.67;17.60;;;;;;;;;;5050643;28;20060;-78
2022/08/16 00:57:06;;;;;;;21.88;17.95;;;;;;;;;;5050558;28;20048;-77
2022/08/16 00:59:34;;;;;;;23.77;17.55;;;;;;;;;;5050230;28;20048;-78
2022/08/16 01:02:01;;;;;;;20.88;16.05;;;;;;;;;;5050160;28;20629;-77
2022/08/16 01:04:27;;;;;;;20.67;17.92;;;;;;;;;;5051030;28;20076;-78
2022/08/16 01:06:54;;;;;;;20.27;16.95;;;;;;;;;;5050739;28;20517;-77
2022/08/16 01:09:20;;;;;;;20.88;17.00;;;;;;;;;;5050698;28;20124;-78
2022/08/16 01:11:46;;;;;;;22.92;18.10;;;;;;;;;;5050444;28;20079;-78
2022/08/16 01:14:19;;;;;;;22.70;17.48;;;;;;;;;;5033745;28;20037;-78
2022/08/16 01:16:45;;;;;;;22.88;17.45;;;;;;;;;;5050111;28;20071;-78
2022/08/16 01:19:18;;;;;;;19.20;15.80;;;;;;;;;;5034057;28;20041;-78
2022/08/16 01:21:50;;;;;;;21.60;16.15;;;;;;;;;;5033200;28;20041;-78
2022/08/16 01:24:19;;;;;;;25.05;17.65;;;;;;;;;;5050565;28;20052;-78
2022/08/16 01:26:46;;;;;;;21.23;17.65;;;;;;;;;;5050596;28;20040;-78
2022/08/16 01:29:16;;;;;;;18.13;16.15;;;;;;;;;;5050545;28;20107;-78
2022/08/16 01:31:42;;;;;;;21.45;17.23;;;;;;;;;;5049993;28;20033;-78
2022/08/16 01:34:08;;;;;;;19.73;16.42;;;;;;;;;;5033821;28;20071;-78
2022/08/16 01:36:35;;;;;;;22.23;17.95;;;;;;;;;;5050549;28;20037;-78
2022/08/16 01:39:08;;;;;;;21.80;16.60;;;;;;;;;;5036415;28;20045;-78
2022/08/16 01:41:34;;;;;;;21.83;17.90;;;;;;;;;;5054002;28;20043;-78
2022/08/16 01:44:00;;;;;;;20.73;17.08;;;;;;;;;;5053955;28;20405;-78
2022/08/16 01:46:32;;;;;;;20.35;16.75;;;;;;;;;;5054213;28;20053;-78
2022/08/16 01:49:02;;;;;;;21.33;17.48;;;;;;;;;;5040745;28;20098;-78
2022/08/16 01:51:29;;;;;;;21.13;17.70;;;;;;;;;;5054027;28;20044;-78
2022/08/16 01:53:56;;;;;;;21.27;17.90;;;;;;;;;;5053633;28;20120;-78
2022/08/16 01:56:22;;;;;;;23.25;17.90;;;;;;;;;;5054030;28;20037;-78
2022/08/16 01:58:48;;;;;;;19.75;17.50;;;;;;;;;;5053714;28;20045;-78
2022/08/16 02:01:14;;;;;;;17.33;15.52;;;;;;;;;;5053681;28;20573;-78
2022/08/16 02:03:40;;;;;;;19.38;15.48;;;;;;;;;;5050936;28;20087;-78
2022/08/16 02:06:06;;;;;;;23.33;17.05;;;;;;;;;;5032908;28;20060;-78
2022/08/16 02:08:33;;;;;;;22.85;16.73;;;;;;;;;;5053296;28;20033;-78
2022/08/16 02:10:59;;;;;;;23.13;17.63;;;;;;;;;;5032357;28;20127;-78
2022/08/16 02:13:25;;;;;;;21.63;17.45;;;;;;;;;;5053415;28;20540;-78
2022/08/16 02:15:52;;;;;;;20.77;16.10;;;;;;;;;;5044118;28;20045;-78
2022/08/16 02:18:18;;;;;;;20.77;17.45;;;;;;;;;;5047976;28;20033;-78
2022/08/16 02:20:47;;;;;;;22.52;18.63;;;;;;;;;;5048347;28;20045;-78
2022/08/16 02:23:13;;;;;;;21.15;17.85;;;;;;;;;;5052716;28;20040;-77
2022/08/16 02:25:39;;;;;;;22.27;18.45;;;;;;;;;;5053781;28;20482;-77
2022/08/16 02:28:05;;;;;;;24.50;18.33;;;;;;;;;;5036449;28;20064;-78
2022/08/16 02:30:32;;;;;;;22.73;18.92;;;;;;;;;;5036503;28;20041;-78
2022/08/16 02:32:59;;;;;;;26.52;19.33;;;;;;;;;;5052688;28;20082;-78
2022/08/16 02:35:25;;;;;;;23.05;18.83;;;;;;;;;;5053291;28;20098;-78
2022/08/16 02:37:52;;;;;;;22.40;18.42;;;;;;;;;;5053602;28;20124;-78
2022/08/16 02:40:19;;;;;;;22.30;18.27;;;;;;;;;;5053193;28;20068;-78
2022/08/16 02:42:46;;;;;;;24.25;17.80;;;;;;;;;;5052993;28;20041;-79
2022/08/16 02:45:12;;;;;;;21.38;18.33;;;;;;;;;;5052586;28;20049;-78
2022/08/16 02:47:38;;;;;;;20.38;16.98;;;;;;;;;;5036822;28;20382;-78
2022/08/16 02:50:05;;;;;;;21.77;16.92;;;;;;;;;;5052077;28;20045;-78
2022/08/16 02:52:31;;;;;;;20.88;18.27;;;;;;;;;;5052937;28;20037;-78
2022/08/16 02:54:57;;;;;;;21.38;18.50;;;;;;;;;;5052302;28;20106;-78
2022/08/16 02:57:24;;;;;;;24.25;18.95;;;;;;;;;;5052735;28;20040;-78
2022/08/16 02:59:50;;;;;;;22.70;18.92;;;;;;;;;;5052646;28;20521;-78
2022/08/16 03:02:16;;;;;;;21.50;19.17;;;;;;;;;;5019394;28;20076;-78
2022/08/16 03:04:42;;;;;;;25.17;19.73;;;;;;;;;;5052420;28;20040;-78
2022/08/16 03:07:09;;;;;;;26.02;19.85;;;;;;;;;;5019595;28;20383;-78
2022/08/16 03:09:35;;;;;;;24.88;19.73;;;;;;;;;;5052528;28;20041;-78
2022/08/16 03:12:02;;;;;;;27.10;18.58;;;;;;;;;;5051981;28;20037;-78
2022/08/16 03:14:28;;;;;;;26.88;19.45;;;;;;;;;;5035567;28;20041;-78
2022/08/16 03:16:54;;;;;;;26.67;19.42;;;;;;;;;;5052501;28;20073;-78
2022/08/16 03:19:21;;;;;;;25.20;20.55;;;;;;;;;;5035829;28;20041;-78
2022/08/16 03:21:47;;;;;;;25.27;20.27;;;;;;;;;;5036020;28;20068;-78
2022/08/16 03:24:13;;;;;;;25.02;20.05;;;;;;;;;;5052170;28;20045;-78
2022/08/16 03:26:39;;;;;;;24.20;19.63;;;;;;;;;;5035447;28;20075;-78
2022/08/16 03:29:05;;;;;;;25.15;20.23;;;;;;;;;;5052062;28;20045;-78
2022/08/16 03:31:31;;;;;;;24.45;19.50;;;;;;;;;;5052150;28;20047;-77
2022/08/16 03:33:57;;;;;;;24.33;20.50;;;;;;;;;;5035526;28;20037;-78
2022/08/16 03:36:24;;;;;;;23.83;20.85;;;;;;;;;;5034391;28;20063;-78
2022/08/16 03:38:50;;;;;;;28.67;21.27;;;;;;;;;;5036036;28;20549;-78
2022/08/16 03:41:16;;;;;;;28.75;21.70;;;;;;;;;;5015524;28;20032;-79
2022/08/16 03:43:42;;;;;;;24.48;19.25;;;;;;;;;;5025584;28;20029;-79
2022/08/16 03:46:09;;;;;;;27.42;21.10;;;;;;;;;;5051136;28;20137;-78
2022/08/16 03:48:37;;;;;;;31.20;22.42;;;;;;;;;;5035085;28;20493;-78
2022/08/16 03:51:05;;;;;;;28.38;22.52;;;;;;;;;;5034624;28;20124;-78
2022/08/16 03:53:31;;;;;;;26.05;21.73;;;;;;;;;;5052001;28;20477;-78
2022/08/16 03:55:57;;;;;;;32.55;20.35;;;;;;;;;;5015825;28;20379;-76
2022/08/16 03:58:23;;;;;;;26.77;20.85;;;;;;;;;;5050173;28;20374;-79
2022/08/16 04:00:49;;;;;;;27.10;21.02;;;;;;;;;;5044962;28;20048;-78
2022/08/16 04:03:15;;;;;;;26.02;21.33;;;;;;;;;;5034142;28;20049;-77
2022/08/16 04:05:49;;;;;;;24.40;20.05;;;;;;;;;;5044796;28;20077;-77
2022/08/16 04:08:16;;;;;;;25.42;19.90;;;;;;;;;;5042059;28;20528;-79
2022/08/16 04:10:42;;;;;;;25.98;20.27;;;;;;;;;;5039914;28;20041;-78
2022/08/16 04:13:08;;;;;;;27.02;20.42;;;;;;;;;;5043622;28;20048;-78
2022/08/16 04:15:34;;;;;;;25.10;20.92;;;;;;;;;;5025131;28;20048;-78
2022/08/16 04:18:00;;;;;;;26.67;21.45;;;;;;;;;;5043779;28;20110;-78
2022/08/16 04:20:26;;;;;;;27.27;21.25;;;;;;;;;;5043484;28;20494;-78
2022/08/16 04:22:52;;;;;;;25.30;20.63;;;;;;;;;;5047693;28;20068;-78
2022/08/16 04:25:19;;;;;;;27.13;22.08;;;;;;;;;;5051123;28;20052;-78
2022/08/16 04:27:45;;;;;;;26.90;20.38;;;;;;;;;;5048136;28;20426;-78
2022/08/16 04:30:13;;;;;;;27.40;21.77;;;;;;;;;;5050619;28;20072;-78
2022/08/16 04:32:40;;;;;;;25.70;21.80;;;;;;;;;;5051326;28;20112;-78
2022/08/16 04:35:08;;;;;;;28.38;21.17;;;;;;;;;;5051212;28;20040;-78
2022/08/16 04:37:34;;;;;;;23.67;19.98;;;;;;;;;;5051490;28;20041;-91
2022/08/16 04:40:00;;;;;;;25.13;20.52;;;;;;;;;;5035219;28;20434;-88
2022/08/16 04:42:26;;;;;;;26.67;20.80;;;;;;;;;;5041926;28;20075;-88
2022/08/16 04:44:54;;;;;;;25.50;20.75;;;;;;;;;;5030500;28;20527;-89
2022/08/16 04:47:20;;;;;;;26.23;20.52;;;;;;;;;;5034430;28;20053;-89
2022/08/16 04:49:46;;;;;;;27.55;20.48;;;;;;;;;;5051118;28;20048;-89
2022/08/16 04:52:12;;;;;;;27.75;19.40;;;;;;;;;;5034400;28;20041;-90
2022/08/16 04:54:39;;;;;;;24.60;18.13;;;;;;;;;;5034727;28;20036;-81
2022/08/16 04:57:06;;;;;;;23.13;19.83;;;;;;;;;;5050435;28;20124;-80
2022/08/16 04:59:32;;;;;;;28.08;20.77;;;;;;;;;;5049517;28;20041;-82
2022/08/16 05:01:58;;;;;;;25.30;19.05;;;;;;;;;;5036565;28;20069;-82
2022/08/16 05:04:24;;;;;;;21.80;18.52;;;;;;;;;;5028147;28;20068;-81
2022/08/16 05:06:50;;;;;;;21.75;18.45;;;;;;;;;;5043940;28;20120;-82
2022/08/16 05:09:17;;;;;;;22.15;18.52;;;;;;;;;;5042064;28;20581;-81
2022/08/16 05:11:44;;;;;;;25.02;18.90;;;;;;;;;;5043054;28;20041;-82
2022/08/16 05:14:10;;;;;;;22.15;18.40;;;;;;;;;;5051581;28;20033;-81
2022/08/16 05:16:36;;;;;;;23.70;18.33;;;;;;;;;;5035143;28;20033;-81
2022/08/16 05:19:03;;;;;;;22.48;18.48;;;;;;;;;;5042952;28;20060;-81
2022/08/16 05:21:32;;;;;;;24.95;19.10;;;;;;;;;;5047550;28;20048;-81
2022/08/16 05:23:59;;;;;;;25.23;18.63;;;;;;;;;;5054375;28;20565;-81
2022/08/16 05:26:26;;;;;;;21.63;17.75;;;;;;;;;;5033025;28;20048;-81
2022/08/16 05:28:53;;;;;;;22.52;18.77;;;;;;;;;;5050637;28;20079;-77
2022/08/16 05:31:19;;;;;;;21.30;17.27;;;;;;;;;;5051790;28;20103;-81
2022/08/16 05:33:45;;;;;;;20.83;17.23;;;;;;;;;;5051465;28;20032;-80
2022/08/16 05:36:11;;;;;;;21.40;17.38;;;;;;;;;;5054247;28;20489;-81
2022/08/16 05:38:37;;;;;;;19.30;16.05;;;;;;;;;;5050835;28;20055;-79
2022/08/16 05:41:04;;;;;;;19.30;16.58;;;;;;;;;;5051675;28;20520;-80
2022/08/16 05:43:30;;;;;;;20.40;16.15;;;;;;;;;;5048325;28;20045;-79
2022/08/16 05:45:57;;;;;;;18.67;15.20;;;;;;;;;;5045477;28;20572;-79
2022/08/16 05:48:23;;;;;;;20.13;16.15;;;;;;;;;;5043133;28;20057;-79
2022/08/16 05:50:49;;;;;;;17.65;15.60;;;;;;;;;;5040105;28;20489;-80
2022/08/16 05:53:16;;;;;;;19.42;16.00;;;;;;;;;;5048737;28;20033;-80
2022/08/16 05:55:42;;;;;;;18.80;15.45;;;;;;;;;;5039369;28;20061;-78
2022/08/16 05:58:08;;;;;;;17.45;14.95;;;;;;;;;;5047937;28;20404;-77
2022/08/16 06:00:34;;;;;;;16.95;14.43;;;;;;;;;;5048921;28;20478;-78
2022/08/16 06:03:00;;;;;;;19.25;14.55;;;;;;;;;;5049104;28;20051;-78
2022/08/16 06:05:26;;;;;;;17.77;14.30;;;;;;;;;;5053159;28;20094;-79
2022/08/16 06:07:52;;;;;;;19.00;15.23;;;;;;;;;;5039093;28;20045;-78
2022/08/16 06:10:18;;;;;;;16.55;13.75;;;;;;;;;;5022561;28;20058;-78
2022/08/16 06:12:44;;;;;;;17.67;14.80;;;;;;;;;;5026652;28;20099;-78
2022/08/16 06:15:13;;;;;;;15.90;13.48;;;;;;;;;;5044999;28;20092;-78
2022/08/16 06:17:39;;;;;;;17.65;14.50;;;;;;;;;;5040760;28;20033;-78
2022/08/16 06:20:05;;;;;;;17.98;13.82;;;;;;;;;;5037577;28;20044;-78
2022/08/16 06:22:32;;;;;;;16.75;13.57;;;;;;;;;;5049881;28;20056;-79
2022/08/16 06:24:58;;;;;;;17.48;14.77;;;;;;;;;;5032484;28;20047;-79
2022/08/16 06:27:24;;;;;;;19.02;13.80;;;;;;;;;;5043406;28;20041;-78
2022/08/16 06:29:51;;;;;;;15.82;14.23;;;;;;;;;;5038012;28;20041;-78
2022/08/16 06:32:17;;;;;;;15.30;13.73;;;;;;;;;;5039404;28;20065;-79
2022/08/16 06:34:43;;;;;;;16.55;13.88;;;;;;;;;;5047413;28;20041;-79
2022/08/16 06:37:09;;;;;;;17.10;14.23;;;;;;;;;;5051207;28;20124;-78
2022/08/16 06:39:35;;;;;;;17.83;15.93;;;;;;;;;;5051545;28;20043;-76
2022/08/16 06:42:01;;;;;;;15.95;14.25;;;;;;;;;;5036256;28;20040;-74
2022/08/16 06:44:27;;;;;;;15.98;13.80;;;;;;;;;;5035438;28;20076;-79
2022/08/16 06:46:54;;;;;;;17.38;14.60;;;;;;;;;;5051757;28;20064;-76
2022/08/16 06:49:20;;;;;;;17.60;15.70;;;;;;;;;;5052137;28;20049;-76
2022/08/16 06:51:46;;;;;;;16.50;14.65;;;;;;;;;;5050687;28;20052;-76
2022/08/16 06:54:12;;;;;;;16.42;14.50;;;;;;;;;;5025159;28;20066;-76
2022/08/16 06:56:38;;;;;;;20.38;15.00;;;;;;;;;;5045891;28;20123;-76
2022/08/16 06:59:04;;;;;;;18.00;15.82;;;;;;;;;;5052397;28;20041;-76
2022/08/16 07:01:30;;;;;;;17.85;15.95;;;;;;;;;;5035393;28;20530;-76
2022/08/16 07:03:56;;;;;;;18.08;16.17;;;;;;;;;;5051349;28;20073;-79
2022/08/16 07:06:23;;;;;;;18.33;16.08;;;;;;;;;;5051568;28;20044;-78
2022/08/16 07:08:49;;;;;;;22.17;16.83;;;;;;;;;;5051955;28;20049;-79
2022/08/16 07:11:16;;;;;;;18.23;15.82;;;;;;;;;;5035422;28;20040;-79
2022/08/16 07:13:42;;;;;;;21.05;16.10;;;;;;;;;;5025953;28;20043;-79
2022/08/16 07:16:13;;;;;;;18.02;16.13;;;;;;;;;;5047669;28;20045;-79
2022/08/16 07:18:41;;;;;;;17.55;15.45;;;;;;;;;;5051931;28;20541;-78
2022/08/16 07:21:08;;;;;;;19.83;15.45;;;;;;;;;;5051896;28;20044;-78
2022/08/16 07:23:36;;;;;;;19.70;15.65;;;;;;;;;;5051786;28;20119;-78
2022/08/16 07:26:03;;;;;;;16.38;14.23;;;;;;;;;;5052285;28;20456;-77
2022/08/16 07:28:29;;;;;;;16.38;13.82;;;;;;;;;;5035172;28;20128;-78
2022/08/16 07:30:56;;;;;;;18.15;14.57;;;;;;;;;;5051630;28;20459;-77
2022/08/16 07:33:22;;;;;;;17.52;14.10;;;;;;;;;;5051381;28;20043;-77
2022/08/16 07:35:48;;;;;;;15.98;13.93;;;;;;;;;;5050689;28;20097;-77
2022/08/16 07:38:14;;;;;;;19.45;14.02;;;;;;;;;;5034702;28;20037;-77
2022/08/16 07:40:40;;;;;;;16.08;14.40;;;;;;;;;;5034817;28;20037;-77
2022/08/16 07:43:06;;;;;;;18.33;14.90;;;;;;;;;;5051831;28;20382;-77
2022/08/16 07:45:32;;;;;;;16.20;14.13;;;;;;;;;;5051480;28;20052;-76
2022/08/16 07:47:58;;;;;;;14.93;12.73;;;;;;;;;;5034334;28;20482;-76
2022/08/16 07:50:26;;;;;;;20.23;14.20;;;;;;;;;;5051530;28;20057;-72
2022/08/16 07:52:52;;;;;;;18.17;14.43;;;;;;;;;;5034978;28;20374;-78
2022/08/16 07:55:18;;;;;;;17.45;13.85;;;;;;;;;;5052634;28;20123;-78
2022/08/16 07:57:44;;;;;;;15.85;13.85;;;;;;;;;;5033560;28;20115;-78
2022/08/16 08:00:11;;;;;;;17.85;14.80;;;;;;;;;;5051236;28;20045;-78
2022/08/16 08:02:38;;;;;;;15.75;14.07;;;;;;;;;;5016248;28;20600;-78
2022/08/16 08:05:04;;;;;;;16.00;13.65;;;;;;;;;;5034591;28;20068;-78
2022/08/16 08:07:30;;;;;;;19.25;15.25;;;;;;;;;;5051003;28;20048;-73
2022/08/16 08:09:56;;;;;;;16.92;15.07;;;;;;;;;;5043343;28;21021;-77
2022/08/16 08:12:23;;;;;;;16.80;14.95;;;;;;;;;;5040518;28;20040;-77
2022/08/16 08:14:49;;;;;;;19.85;13.93;;;;;;;;;;5046078;28;20033;-77
2022/08/16 08:17:16;;;;;;;17.05;14.00;;;;;;;;;;5030308;28;20444;-77
2022/08/16 08:19:44;;;;;;;18.75;14.65;;;;;;;;;;5043692;28;20532;-77
2022/08/16 08:22:10;;;;;;;17.77;14.10;;;;;;;;;;5048064;28;20103;-77
2022/08/16 08:24:38;;;;;;;16.35;13.45;;;;;;;;;;5033270;28;20041;-77
2022/08/16 08:27:07;;;;;;;15.88;13.55;;;;;;;;;;5050744;28;20048;-77
2022/08/16 08:29:33;;;;;;;13.20;11.75;;;;;;;;;;5049950;28;20045;-78
2022/08/16 08:31:59;;;;;;;14.57;13.02;;;;;;;;;;5050195;28;20090;-78
2022/08/16 08:34:26;;;;;;;15.02;12.50;;;;;;;;;;5050305;28;20098;-77
2022/08/16 08:36:52;;;;;;;16.23;13.60;;;;;;;;;;5050551;28;20405;-77
2022/08/16 08:39:18;;;;;;;15.35;13.75;;;;;;;;;;5050613;28;20101;-77
2022/08/16 08:41:44;;;;;;;15.25;13.43;;;;;;;;;;5050253;28;20476;-77
2022/08/16 08:44:11;;;;;;;15.88;12.50;;;;;;;;;;5051194;28;20044;-76
2022/08/16 08:46:37;;;;;;;17.90;13.20;;;;;;;;;;5048953;28;20151;-77
2022/08/16 08:49:06;;;;;;;15.02;13.15;;;;;;;;;;5050444;28;20408;-79
2022/08/16 08:51:32;;;;;;;13.48;11.10;;;;;;;;;;5050514;28;20103;-78
2022/08/16 08:53:58;;;;;;;12.93;11.15;;;;;;;;;;5025592;28;20560;-78
2022/08/16 08:56:25;;;;;;;11.75;10.48;;;;;;;;;;5057934;28;20040;-77
2022/08/16 08:58:51;;;;;;;11.40;9.73;;;;;;;;;;5050387;28;20049;-78
2022/08/16 09:01:19;;;;;;;11.00;9.90;;;;;;;;;;5041445;28;20495;-78
2022/08/16 09:03:45;;;;;;;10.80;9.57;;;;;;;;;;5044871;28;20080;-79
2022/08/16 09:06:12;;;;;;;11.73;9.48;;;;;;;;;;5047847;28;20040;-80
2022/08/16 09:08:38;;;;;;;11.85;10.60;;;;;;;;;;5047359;28;20060;-80
2022/08/16 09:11:04;;;;;;;12.63;10.00;;;;;;;;;;5030924;28;20084;-79
2022/08/16 09:13:31;;;;;;;13.15;9.70;;;;;;;;;;5031573;28;20049;-78
2022/08/16 09:15:58;;;;;;;11.77;9.15;;;;;;;;;;5031053;28;20050;-78
2022/08/16 09:18:24;;;;;;;11.90;9.93;;;;;;;;;;5033252;28;20075;-79
2022/08/16 09:20:51;;;;;;;11.80;9.13;;;;;;;;;;5040606;28;20041;-78
2022/08/16 09:23:18;;;;;;;12.95;10.05;;;;;;;;;;5050765;28;20048;-79
2022/08/16 09:25:45;;;;;;;15.90;10.35;;;;;;;;;;5033702;28;20041;-76
2022/08/16 09:28:11;;;;;;;11.93;10.13;;;;;;;;;;5049726;28;20098;-77
2022/08/16 09:30:37;;;;;;;9.70;8.70;;;;;;;;;;5050328;28;20037;-77
2022/08/16 09:33:04;;;;;;;12.77;9.98;;;;;;;;;;5031239;28;20060;-76
2022/08/16 09:35:30;;;;;;;12.27;10.98;;;;;;;;;;5039200;28;20042;-77
2022/08/16 09:37:56;;;;;;;13.15;9.73;;;;;;;;;;5030289;28;20034;-77
2022/08/16 09:40:23;;;;;;;12.80;9.68;;;;;;;;;;5050181;28;20115;-76
2022/08/16 09:42:49;;;;;;;12.13;9.40;;;;;;;;;;5047619;28;20575;-76
2022/08/16 09:45:15;;;;;;;11.15;9.88;;;;;;;;;;5030735;28;20389;-76
2022/08/16 09:47:42;;;;;;;13.63;8.10;;;;;;;;;;5062153;28;20049;-76
2022/08/16 09:50:09;;;;;;;8.85;7.50;;;;;;;;;;5032932;28;20049;-77
2022/08/16 09:52:36;;;;;;;8.52;7.60;;;;;;;;;;5033359;28;20116;-77
2022/08/16 09:55:04;;;;;;;12.50;8.10;;;;;;;;;;5049952;28;20516;-77
2022/08/16 09:57:30;;;;;;;9.80;7.18;;;;;;;;;;5048074;28;20037;-77
2022/08/16 09:59:56;;;;;;;10.27;7.88;;;;;;;;;;5051704;28;20041;-76
2022/08/16 10:02:24;;;;;;;11.45;8.65;;;;;;;;;;5050927;28;20036;-76
2022/08/16 10:04:50;;;;;;;11.98;7.70;;;;;;;;;;5052793;28;20045;-77
2022/08/16 10:07:16;;;;;;;9.88;7.05;;;;;;;;;;5036905;28;20186;-76
2022/08/16 10:09:46;;;;;;;10.20;6.60;;;;;;;;;;5053728;28;20052;-77
2022/08/16 10:14:57;;;;;;;9.20;7.18;;;;;;;;;;5053144;28;20084;-76
2022/08/16 10:17:23;;;;;;;11.18;7.55;;;;;;;;;;5053624;28;20439;-76
2022/08/16 10:19:54;;;;;;;10.30;7.22;;;;;;;;;;5053448;28;20490;-77
2022/08/16 10:22:20;;;;;;;9.48;8.32;;;;;;;;;;5053213;28;20063;-76
2022/08/16 10:24:46;;;;;;;10.10;6.47;;;;;;;;;;5052893;28;20119;-76
2022/08/16 10:27:12;;;;;;;12.73;9.50;;;;;;;;;;5053128;28;20048;-77
2022/08/16 10:29:39;;;;;;;10.13;8.63;;;;;;;;;;5036483;28;20493;-77
2022/08/16 10:32:06;;;;;;;14.52;9.00;;;;;;;;;;5052932;28;20393;-77
2022/08/16 10:34:32;;;;;;;8.70;7.65;;;;;;;;;;5069770;28;20056;-77
2022/08/16 10:36:58;;;;;;;10.45;7.22;;;;;;;;;;5064453;28;20084;-76
2022/08/16 10:39:24;;;;;;;11.02;6.55;;;;;;;;;;5052612;28;20478;-76
2022/08/16 10:41:50;;;;;;;8.90;6.63;;;;;;;;;;5021166;28;20512;-78
2022/08/16 10:44:16;;;;;;;8.40;7.50;;;;;;;;;;5043576;28;20440;-77
2022/08/16 10:46:42;;;;;;;11.30;7.85;;;;;;;;;;5015054;28;20395;-76
2022/08/16 10:49:09;;;;;;;10.50;6.90;;;;;;;;;;5035725;28;20041;-76
2022/08/16 10:51:38;;;;;;;10.75;7.53;;;;;;;;;;5045291;28;20174;-77
2022/08/16 10:54:04;;;;;;;9.38;6.72;;;;;;;;;;5042612;28;20041;-77
2022/08/16 10:56:31;;;;;;;7.95;6.40;;;;;;;;;;5036262;28;20041;-76
2022/08/16 10:58:58;;;;;;;7.70;5.82;;;;;;;;;;5052478;28;20489;-76
2022/08/16 11:01:24;;;;;;;9.18;7.57;;;;;;;;;;5052788;28;20049;-76
2022/08/16 11:03:51;;;;;;;9.45;7.32;;;;;;;;;;5052405;28;20470;-76
2022/08/16 11:06:18;;;;;;;13.00;5.85;;;;;;;;;;5036109;28;20037;-76
2022/08/16 11:08:44;;;;;;;10.30;6.60;;;;;;;;;;5052228;28;20421;-76
2022/08/16 11:11:12;;;;;;;9.02;6.53;;;;;;;;;;5035120;28;20045;-76
2022/08/16 11:13:38;;;;;;;10.65;5.32;;;;;;;;;;5052730;28;20053;-77
2022/08/16 11:16:05;;;;;;;6.15;4.03;;;;;;;;;;5035117;28;20032;-76
2022/08/16 11:18:31;;;;;;;8.57;3.90;;;;;;;;;;5052723;28;20124;-76
2022/08/16 11:20:58;;;;;;;8.20;4.20;;;;;;;;;;5051970;28;20562;-79
2022/08/16 11:23:24;;;;;;;8.30;4.20;;;;;;;;;;5035130;28;20064;-78
2022/08/16 11:25:51;;;;;;;8.25;3.60;;;;;;;;;;5052168;28;20048;-77
2022/08/16 11:28:18;;;;;;;7.53;4.05;;;;;;;;;;5061896;28;20047;-76
2022/08/16 11:30:45;;;;;;;6.30;3.65;;;;;;;;;;5035691;28;20503;-76
2022/08/16 11:33:12;;;;;;;6.25;3.67;;;;;;;;;;5051582;28;20040;-76
2022/08/16 11:35:39;;;;;;;5.90;4.00;;;;;;;;;;5035623;28;20702;-76
2022/08/16 11:38:06;;;;;;;6.72;4.30;;;;;;;;;;5033964;28;20040;-77
2022/08/16 11:40:36;;;;;;;8.90;5.10;;;;;;;;;;5051247;28;20120;-77
2022/08/16 11:43:02;;;;;;;8.98;4.13;;;;;;;;;;5040909;28;20107;-76
2022/08/16 11:45:28;;;;;;;6.10;4.32;;;;;;;;;;5043847;28;20057;-77
2022/08/16 11:47:55;;;;;;;6.82;4.28;;;;;;;;;;5044395;28;20056;-76
2022/08/16 11:50:23;;;;;;;8.00;4.88;;;;;;;;;;5030687;28;20073;-77
2022/08/16 11:52:49;;;;;;;8.18;4.20;;;;;;;;;;5050003;28;20060;-76
2022/08/16 11:55:15;;;;;;;5.55;4.93;;;;;;;;;;5035982;28;20047;-75
2022/08/16 11:57:41;;;;;;;7.35;4.55;;;;;;;;;;5036036;28;20044;-76
2022/08/16 12:00:10;;;;;;;7.53;5.10;;;;;;;;;;5050659;28;20045;-76
2022/08/16 12:02:37;;;;;;;8.07;5.25;;;;;;;;;;5032940;28;20045;-76
2022/08/16 12:05:04;;;;;;;9.57;5.75;;;;;;;;;;5035151;28;20051;-76
2022/08/16 12:07:30;;;;;;;13.07;6.18;;;;;;;;;;5035687;28;20037;-76
2022/08/16 12:09:56;;;;;;;7.82;5.80;;;;;;;;;;5046202;28;20110;-76
2022/08/16 12:12:22;;;;;;;13.00;7.07;;;;;;;;;;5031126;28;20037;-76
2022/08/16 12:14:48;;;;;;;8.32;6.03;;;;;;;;;;5048363;28;20048;-76
2022/08/16 12:17:14;;;;;;;8.55;6.15;;;;;;;;;;5032259;28;20036;-76
2022/08/16 12:19:41;;;;;;;7.40;5.80;;;;;;;;;;5046622;28;20048;-75
2022/08/16 12:22:07;;;;;;;7.93;5.22;;;;;;;;;;5031734;28;20049;-76
2022/08/16 12:24:33;;;;;;;9.80;6.47;;;;;;;;;;5034366;28;20405;-75
2022/08/16 12:26:59;;;;;;;10.85;6.78;;;;;;;;;;5033166;28;20048;-78
2022/08/16 12:29:26;;;;;;;10.82;5.75;;;;;;;;;;5049424;28;20410;-77
2022/08/16 12:31:52;;;;;;;7.03;5.70;;;;;;;;;;5065079;28;20040;-79
2022/08/16 12:34:19;;;;;;;7.72;5.47;;;;;;;;;;5049076;28;20044;-78
2022/08/16 12:36:45;;;;;;;9.80;5.75;;;;;;;;;;5045740;28;20033;-76
2022/08/16 12:39:12;;;;;;;8.60;6.20;;;;;;;;;;5032603;28;20037;-77
2022/08/16 12:41:38;;;;;;;9.30;6.63;;;;;;;;;;5050234;28;20041;-77
2022/08/16 12:44:07;;;;;;;8.75;6.75;;;;;;;;;;5050149;28;20041;-78
2022/08/16 12:46:33;;;;;;;12.02;7.47;;;;;;;;;;5050143;28;20134;-77
2022/08/16 12:49:02;;;;;;;13.10;9.50;;;;;;;;;;5050598;28;20044;-77
2022/08/16 12:51:39;;;;;;;15.25;11.07;;;;;;;;;;5050261;28;20504;-77
2022/08/16 12:54:07;;;;;;;16.83;9.85;;;;;;;;;;5037247;28;20033;-77
2022/08/16 12:56:35;;;;;;;16.20;10.68;;;;;;;;;;5049962;28;20490;-78
2022/08/16 12:59:05;;;;;;;18.80;11.40;;;;;;;;;;5050651;28;20138;-78
2022/08/16 13:01:32;;;;;;;14.27;11.27;;;;;;;;;;5050386;28;20115;-78
2022/08/16 13:03:59;;;;;;;16.90;11.60;;;;;;;;;;5045451;28;20041;-77
2022/08/16 13:06:25;;;;;;;15.02;11.32;;;;;;;;;;5030976;28;20424;-78
2022/08/16 13:08:52;;;;;;;11.98;10.05;;;;;;;;;;5030991;28;20179;-78
2022/08/16 13:11:22;;;;;;;16.15;11.43;;;;;;;;;;5031328;28;20050;-78
2022/08/16 13:13:49;;;;;;;13.88;10.77;;;;;;;;;;5035218;28;20045;-78
2022/08/16 13:16:15;;;;;;;12.75;9.60;;;;;;;;;;5005325;28;20040;-78
2022/08/16 13:18:41;;;;;;;15.45;9.02;;;;;;;;;;5047647;28;20044;-76
2022/08/16 13:21:07;;;;;;;11.45;8.88;;;;;;;;;;5050537;28;20056;-77
2022/08/16 13:23:34;;;;;;;11.52;9.00;;;;;;;;;;5034067;28;20076;-76
2022/08/16 13:26:01;;;;;;;11.30;8.20;;;;;;;;;;5050975;28;20492;-77
2022/08/16 13:28:27;;;;;;;11.85;9.75;;;;;;;;;;5033807;28;20378;-77
2022/08/16 13:30:54;;;;;;;16.40;10.20;;;;;;;;;;5034101;28;20110;-77
2022/08/16 13:33:23;;;;;;;14.32;10.27;;;;;;;;;;5049075;28;20041;-77
2022/08/16 13:35:50;;;;;;;15.65;10.30;;;;;;;;;;5054441;28;20117;-78
2022/08/16 13:38:16;;;;;;;15.85;10.30;;;;;;;;;;5037698;28;20037;-78
2022/08/16 13:40:42;;;;;;;14.30;9.10;;;;;;;;;;5054508;28;20052;-77
2022/08/16 13:43:08;;;;;;;17.58;10.38;;;;;;;;;;5053882;28;20386;-78
2022/08/16 13:45:35;;;;;;;16.60;11.05;;;;;;;;;;5054597;28;20052;-77
2022/08/16 13:48:01;;;;;;;14.98;10.32;;;;;;;;;;5053592;28;20456;-76
2022/08/16 13:50:28;;;;;;;16.02;11.45;;;;;;;;;;5037120;28;20072;-77
2022/08/16 13:52:54;;;;;;;14.07;10.68;;;;;;;;;;5054207;28;20045;-75
2022/08/16 13:55:21;;;;;;;12.73;10.40;;;;;;;;;;5052511;28;20037;-79
2022/08/16 13:57:47;;;;;;;13.93;10.65;;;;;;;;;;5053438;28;20037;-77
2022/08/16 14:00:13;;;;;;;15.10;11.48;;;;;;;;;;5053442;28;20041;-77
2022/08/16 14:02:39;;;;;;;13.57;11.77;;;;;;;;;;5053689;28;20044;-75
2022/08/16 14:05:06;;;;;;;17.48;12.02;;;;;;;;;;5036187;28;20489;-76
2022/08/16 14:07:32;;;;;;;17.17;11.60;;;;;;;;;;5043728;28;20045;-76
2022/08/16 14:09:59;;;;;;;15.63;11.73;;;;;;;;;;5048946;28;20127;-76
2022/08/16 14:12:26;;;;;;;13.05;11.40;;;;;;;;;;5053552;28;20044;-76
2022/08/16 14:14:53;;;;;;;25.88;12.50;;;;;;;;;;5052845;28;20044;-76
2022/08/16 14:17:21;;;;;;;14.60;11.52;;;;;;;;;;5052205;28;20064;-77
2022/08/16 14:19:47;;;;;;;15.00;11.65;;;;;;;;;;5052705;28;20048;-76